createdAt,value
2023-04-26T00:01:03.952Z,1.10
2023-04-26T00:03:31.672Z,0.30
2023-04-26T00:06:03.841Z,1.47
2023-04-26T00:08:31.228Z,0.90
2023-04-26T00:10:58.610Z,1.20
2023-04-26T00:13:26.065Z,1.37
2023-04-26T00:15:53.869Z,1.10
2023-04-26T00:18:21.245Z,1.70
2023-04-26T00:20:48.631Z,1.07
2023-04-26T00:23:17.431Z,1.27
2023-04-26T00:25:44.863Z,1.17
2023-04-26T00:28:12.298Z,1.20
2023-04-26T00:30:42.141Z,0.97
2023-04-26T00:33:10.585Z,1.30
2023-04-26T00:35:38.656Z,1.07
2023-04-26T00:38:06.580Z,0.77
2023-04-26T00:40:36.132Z,1.30
2023-04-26T00:43:03.909Z,1.43
2023-04-26T00:45:31.950Z,0.67
2023-04-26T00:47:59.553Z,1.13
2023-04-26T00:50:27.198Z,1.07
2023-04-26T00:52:54.765Z,1.20
2023-04-26T00:55:22.988Z,1.33
2023-04-26T00:57:51.942Z,2.00
2023-04-26T01:00:19.704Z,1.30
2023-04-26T01:02:47.446Z,1.43
2023-04-26T01:05:14.975Z,1.33
2023-04-26T01:07:45.145Z,1.70
2023-04-26T01:10:12.573Z,1.80
2023-04-26T01:12:40.120Z,1.60
2023-04-26T01:15:09.587Z,1.60
2023-04-26T01:17:37.711Z,1.47
2023-04-26T01:20:05.901Z,1.57
2023-04-26T01:22:36.231Z,1.70
2023-04-26T01:25:07.668Z,1.37
2023-04-26T01:27:35.693Z,1.20
2023-04-26T01:30:03.676Z,1.50
2023-04-26T01:32:31.777Z,1.80
2023-04-26T01:35:00.517Z,1.50
2023-04-26T01:37:27.928Z,1.40
2023-04-26T01:39:56.694Z,1.37
2023-04-26T01:42:24.077Z,1.53
2023-04-26T01:44:51.828Z,1.67
2023-04-26T01:47:19.373Z,1.73
2023-04-26T01:49:46.888Z,1.70
2023-04-26T01:52:14.716Z,1.83
2023-04-26T01:54:42.398Z,1.43
2023-04-26T01:57:11.129Z,1.83
2023-04-26T01:59:38.569Z,2.00
2023-04-26T02:02:06.864Z,2.00
2023-04-26T02:04:34.634Z,1.73
2023-04-26T02:07:02.612Z,1.90
2023-04-26T02:09:30.174Z,1.70
2023-04-26T02:11:57.632Z,1.57
2023-04-26T02:14:28.477Z,1.70
2023-04-26T02:16:57.036Z,1.70
2023-04-26T02:19:24.685Z,1.90
2023-04-26T02:21:53.266Z,1.80
2023-04-26T02:24:21.554Z,1.87
2023-04-26T02:26:49.106Z,1.90
2023-04-26T02:29:16.607Z,1.83
2023-04-26T02:31:45.362Z,1.73
2023-04-26T02:34:13.150Z,1.77
2023-04-26T02:36:41.045Z,1.53
2023-04-26T02:39:08.728Z,1.70
2023-04-26T02:41:36.928Z,1.80
2023-04-26T02:44:04.303Z,1.90
2023-04-26T02:46:32.492Z,1.93
2023-04-26T02:49:02.502Z,1.60
2023-04-26T02:51:29.851Z,1.80
2023-04-26T02:53:57.575Z,2.00
2023-04-26T02:56:25.568Z,1.50
2023-04-26T02:58:55.581Z,2.10
2023-04-26T03:01:24.037Z,1.80
2023-04-26T03:03:52.070Z,1.53
2023-04-26T03:06:20.828Z,2.03
2023-04-26T03:08:48.288Z,1.83
2023-04-26T03:11:15.981Z,1.93
2023-04-26T03:13:43.595Z,2.30
2023-04-26T03:16:11.141Z,1.83
2023-04-26T03:18:38.621Z,2.20
2023-04-26T03:21:07.995Z,1.93
2023-04-26T03:23:40.502Z,2.00
2023-04-26T03:26:08.263Z,1.60
2023-04-26T03:28:35.969Z,1.67
2023-04-26T03:31:04.004Z,1.53
2023-04-26T03:33:32.197Z,1.67
2023-04-26T03:35:59.534Z,1.43
2023-04-26T03:38:27.226Z,1.43
2023-04-26T03:40:56.367Z,1.43
2023-04-26T03:43:24.671Z,1.40
2023-04-26T03:45:53.581Z,1.40
2023-04-26T03:48:21.343Z,1.30
2023-04-26T03:50:48.992Z,1.40
2023-04-26T03:53:17.695Z,1.37
2023-04-26T03:55:45.137Z,1.50
2023-04-26T03:58:14.136Z,1.00
2023-04-26T04:00:44.393Z,1.50
2023-04-26T04:03:12.551Z,1.30
2023-04-26T04:05:40.860Z,1.20
2023-04-26T04:08:09.058Z,1.23
2023-04-26T04:10:37.947Z,1.80
2023-04-26T04:13:05.505Z,1.20
2023-04-26T04:15:34.614Z,1.47
2023-04-26T04:18:02.152Z,1.60
2023-04-26T04:20:30.236Z,1.40
2023-04-26T04:22:58.636Z,1.37
2023-04-26T04:25:26.929Z,1.70
2023-04-26T04:27:54.732Z,1.60
2023-04-26T04:30:22.536Z,1.63
2023-04-26T04:32:51.949Z,1.63
2023-04-26T04:35:19.832Z,1.13
2023-04-26T04:37:50.024Z,1.37
2023-04-26T04:40:17.889Z,1.70
2023-04-26T04:42:47.908Z,1.23
2023-04-26T04:45:17.414Z,1.40
2023-04-26T04:47:46.460Z,1.43
2023-04-26T04:50:15.956Z,1.50
2023-04-26T04:52:44.023Z,1.67
2023-04-26T04:55:12.566Z,1.70
2023-04-26T04:57:42.690Z,1.57
2023-04-26T05:00:12.520Z,1.37
2023-04-26T05:02:46.690Z,1.90
2023-04-26T05:05:15.911Z,2.17
2023-04-26T05:07:43.977Z,1.60
2023-04-26T05:10:12.087Z,1.50
2023-04-26T05:12:39.475Z,1.57
2023-04-26T05:15:09.189Z,1.90
2023-04-26T05:17:36.817Z,1.90
2023-04-26T05:20:18.253Z,2.03
2023-04-26T05:22:45.629Z,1.80
2023-04-26T05:25:14.075Z,2.00
2023-04-26T05:27:42.689Z,2.47
2023-04-26T05:30:28.787Z,2.30
2023-04-26T05:33:25.533Z,2.40
2023-04-26T05:36:15.517Z,2.30
2023-04-26T05:38:42.930Z,2.67
2023-04-26T05:41:10.538Z,2.50
2023-04-26T05:43:40.608Z,2.47
2023-04-26T05:46:08.063Z,1.97
2023-04-26T05:48:35.693Z,2.20
2023-04-26T05:51:03.256Z,2.00
2023-04-26T05:53:33.739Z,1.77
2023-04-26T05:56:01.768Z,2.00
2023-04-26T05:58:29.652Z,2.00
2023-04-26T06:00:57.320Z,2.50
2023-04-26T06:03:25.555Z,1.60
2023-04-26T06:05:54.133Z,2.23
2023-04-26T06:08:23.612Z,1.80
2023-04-26T06:10:52.302Z,2.30
2023-04-26T06:13:19.653Z,2.10
2023-04-26T06:15:47.086Z,2.30
2023-04-26T06:18:14.634Z,2.00
2023-04-26T06:20:42.126Z,2.10
2023-04-26T06:23:09.571Z,1.93
2023-04-26T06:25:37.143Z,1.50
2023-04-26T06:28:06.634Z,1.70
2023-04-26T06:30:34.848Z,1.43
2023-04-26T06:33:03.421Z,1.40
2023-04-26T06:35:32.254Z,1.20
2023-04-26T06:38:00.136Z,2.13
2023-04-26T06:40:27.794Z,1.80
2023-04-26T06:42:55.573Z,1.43
2023-04-26T06:45:47.423Z,1.50
2023-04-26T06:48:14.788Z,1.50
2023-04-26T06:50:42.404Z,1.80
2023-04-26T06:53:09.782Z,2.30
2023-04-26T06:55:37.250Z,1.80
2023-04-26T06:58:04.713Z,1.73
2023-04-26T07:00:32.326Z,0.77
2023-04-26T07:03:01.449Z,1.40
2023-04-26T07:05:28.927Z,1.20
2023-04-26T07:07:56.345Z,0.70
2023-04-26T07:10:23.881Z,1.53
2023-04-26T07:12:51.693Z,1.97
2023-04-26T07:15:19.055Z,1.00
2023-04-26T07:17:46.688Z,1.77
2023-04-26T07:20:19.750Z,1.37
2023-04-26T07:22:47.078Z,1.40
2023-04-26T07:25:14.565Z,1.50
2023-04-26T07:27:42.282Z,1.60
2023-04-26T07:30:10.265Z,1.63
2023-04-26T07:32:37.896Z,1.60
2023-04-26T07:35:07.511Z,1.50
2023-04-26T07:37:36.232Z,1.60
2023-04-26T07:40:04.919Z,1.70
2023-04-26T07:42:32.226Z,2.00
2023-04-26T07:44:59.828Z,2.67
2023-04-26T07:47:27.206Z,1.50
2023-04-26T07:49:55.512Z,1.33
2023-04-26T07:52:22.852Z,1.77
2023-04-26T07:54:51.750Z,1.60
2023-04-26T07:57:19.508Z,1.50
2023-04-26T07:59:47.061Z,2.00
2023-04-26T08:02:14.527Z,1.17
2023-04-26T08:04:48.968Z,1.67
2023-04-26T08:07:17.052Z,1.20
2023-04-26T08:09:44.709Z,1.30
2023-04-26T08:12:13.783Z,1.37
2023-04-26T08:14:41.475Z,1.87
2023-04-26T08:17:10.377Z,1.27
2023-04-26T08:19:37.934Z,1.53
2023-04-26T08:22:05.755Z,1.27
2023-04-26T08:24:33.270Z,1.03
2023-04-26T08:27:00.630Z,1.37
2023-04-26T08:29:29.543Z,1.80
2023-04-26T08:31:57.245Z,1.47
2023-04-26T08:34:24.703Z,1.57
2023-04-26T08:36:52.377Z,0.90
2023-04-26T08:39:19.799Z,1.27
2023-04-26T08:41:51.031Z,1.20
2023-04-26T08:44:20.271Z,0.73
2023-04-26T08:46:53.576Z,0.80
2023-04-26T08:49:27.817Z,1.30
2023-04-26T08:51:56.646Z,0.57
2023-04-26T08:54:25.206Z,1.50
2023-04-26T08:56:52.797Z,1.57
2023-04-26T08:59:20.440Z,1.47
2023-04-26T09:01:49.603Z,1.00
2023-04-26T09:04:17.828Z,1.60
2023-04-26T09:06:45.676Z,1.20
2023-04-26T09:09:14.529Z,1.70
2023-04-26T09:11:55.357Z,1.60
2023-04-26T09:14:23.282Z,1.80
2023-04-26T09:16:53.329Z,1.53
2023-04-26T09:19:35.395Z,1.10
2023-04-26T09:22:03.102Z,0.97
2023-04-26T09:24:30.533Z,1.73
2023-04-26T09:27:02.943Z,0.73
2023-04-26T09:29:31.352Z,1.40
2023-04-26T09:32:00.052Z,1.40
2023-04-26T09:34:27.398Z,1.80
2023-04-26T09:36:56.900Z,0.80
2023-04-26T09:39:34.058Z,1.60
2023-04-26T09:42:01.881Z,2.10
2023-04-26T09:44:29.944Z,1.50
2023-04-26T09:47:06.137Z,2.10
2023-04-26T09:49:34.406Z,1.93
2023-04-26T09:52:02.469Z,2.30
2023-04-26T09:54:40.945Z,2.17
2023-04-26T09:57:08.310Z,1.60
2023-04-26T09:59:45.619Z,0.40
2023-04-26T10:02:19.512Z,1.87
2023-04-26T10:04:47.877Z,1.73
2023-04-26T10:07:16.039Z,2.57
2023-04-26T10:09:43.586Z,1.87
2023-04-26T10:12:11.645Z,0.97
2023-04-26T10:14:39.092Z,2.00
2023-04-26T10:17:06.745Z,1.27
2023-04-26T10:19:38.866Z,1.30
2023-04-26T10:22:07.773Z,1.80
2023-04-26T10:24:35.762Z,1.63
2023-04-26T10:27:04.177Z,1.37
2023-04-26T10:29:50.401Z,1.17
2023-04-26T10:32:18.701Z,1.63
2023-04-26T10:35:07.560Z,1.70
2023-04-26T10:37:34.924Z,1.40
2023-04-26T10:40:17.373Z,2.17
2023-04-26T10:42:44.707Z,1.60
2023-04-26T10:45:26.521Z,1.30
2023-04-26T10:48:14.484Z,1.90
2023-04-26T10:50:56.780Z,1.30
2023-04-26T10:53:25.764Z,1.60
2023-04-26T10:55:53.516Z,2.00
2023-04-26T10:58:27.763Z,2.13
2023-04-26T11:01:05.022Z,1.83
2023-04-26T11:03:33.106Z,2.10
2023-04-26T11:06:01.764Z,1.93
2023-04-26T11:08:32.151Z,1.50
2023-04-26T11:11:10.847Z,1.60
2023-04-26T11:13:38.922Z,1.80
2023-04-26T11:16:07.002Z,1.60
2023-04-26T11:18:35.113Z,1.53
2023-04-26T11:21:02.948Z,1.60
2023-04-26T11:23:32.862Z,1.80
2023-04-26T11:26:02.874Z,1.53
2023-04-26T11:28:33.878Z,1.47
2023-04-26T11:31:01.931Z,1.57
2023-04-26T11:33:30.021Z,1.80
2023-04-26T11:35:58.235Z,1.30
2023-04-26T11:38:26.327Z,1.53
2023-04-26T11:40:56.273Z,1.80
2023-04-26T11:43:23.872Z,1.40
2023-04-26T11:45:51.708Z,1.10
2023-04-26T11:48:19.499Z,1.67
2023-04-26T11:50:47.300Z,2.13
2023-04-26T11:53:14.665Z,1.20
2023-04-26T11:55:42.018Z,1.67
2023-04-26T11:58:15.237Z,2.53
2023-04-26T12:00:58.301Z,1.30
2023-04-26T12:03:30.204Z,0.90
2023-04-26T12:05:57.670Z,1.47
2023-04-26T12:08:25.416Z,1.03
2023-04-26T12:10:53.128Z,0.67
2023-04-26T12:13:21.780Z,1.43
2023-04-26T12:15:51.322Z,1.30
2023-04-26T12:18:19.455Z,1.50
2023-04-26T12:20:48.450Z,0.97
2023-04-26T12:23:16.530Z,2.23
2023-04-26T12:25:53.319Z,0.87
2023-04-26T12:28:22.703Z,1.70
2023-04-26T12:30:50.820Z,1.60
2023-04-26T12:33:22.931Z,1.40
2023-04-26T12:35:50.667Z,1.87
2023-04-26T12:38:18.446Z,1.70
2023-04-26T12:40:45.925Z,1.77
2023-04-26T12:43:15.833Z,1.30
2023-04-26T12:45:44.741Z,1.67
2023-04-26T12:48:12.900Z,1.30
2023-04-26T12:50:40.524Z,1.60
2023-04-26T12:53:07.837Z,1.57
2023-04-26T12:55:35.575Z,1.27
2023-04-26T12:58:02.898Z,1.33
2023-04-26T13:00:30.623Z,1.20
2023-04-26T13:02:59.557Z,1.20
2023-04-26T13:05:27.103Z,1.30
2023-04-26T13:07:54.689Z,1.20
2023-04-26T13:10:22.591Z,1.20
2023-04-26T13:12:50.102Z,1.10
2023-04-26T13:15:17.979Z,1.47
2023-04-26T13:17:45.557Z,1.60
2023-04-26T13:20:15.565Z,1.60
2023-04-26T13:22:43.457Z,1.10
2023-04-26T13:25:11.001Z,1.33
2023-04-26T13:27:38.888Z,1.20
2023-04-26T13:30:07.209Z,1.23
2023-04-26T13:32:35.322Z,1.33
2023-04-26T13:35:02.987Z,0.90
2023-04-26T13:37:32.840Z,1.13
2023-04-26T13:40:00.435Z,1.77
2023-04-26T13:42:28.094Z,1.20
2023-04-26T13:44:55.507Z,1.40
2023-04-26T13:47:23.105Z,1.10
2023-04-26T13:49:50.957Z,1.57
2023-04-26T13:52:18.626Z,1.53
2023-04-26T13:54:47.363Z,1.27
2023-04-26T13:57:15.899Z,1.57
2023-04-26T13:59:43.325Z,1.47
2023-04-26T14:02:10.979Z,1.30
2023-04-26T14:04:38.560Z,0.97
2023-04-26T14:07:06.689Z,1.03
2023-04-26T14:09:34.147Z,1.10
2023-04-26T14:12:08.545Z,1.50
2023-04-26T14:14:36.636Z,1.37
2023-04-26T14:17:03.998Z,1.23
2023-04-26T14:19:31.633Z,1.00
2023-04-26T14:21:59.017Z,1.80
2023-04-26T14:24:26.450Z,1.53
2023-04-26T14:26:54.189Z,1.30
2023-04-26T14:29:23.022Z,1.23
2023-04-26T14:31:50.994Z,0.93
2023-04-26T14:34:19.145Z,1.50
2023-04-26T14:36:47.668Z,1.30
2023-04-26T14:39:15.180Z,1.53
2023-04-26T14:41:43.194Z,1.00
2023-04-26T14:44:10.540Z,1.43
2023-04-26T14:46:39.433Z,1.20
2023-04-26T14:49:06.856Z,1.33
2023-04-26T14:51:34.395Z,1.30
2023-04-26T14:54:01.895Z,1.20
2023-04-26T14:56:33.064Z,1.30
2023-04-26T14:59:01.408Z,1.27
2023-04-26T15:01:29.466Z,1.50
2023-04-26T15:04:00.544Z,1.70
2023-04-26T15:06:28.809Z,1.50
2023-04-26T15:08:56.439Z,1.50
2023-04-26T15:11:23.806Z,1.27
2023-04-26T15:13:51.234Z,1.10
2023-04-26T15:16:19.596Z,1.43
2023-04-26T15:18:47.023Z,1.40
2023-04-26T15:21:18.282Z,1.30
2023-04-26T15:23:45.896Z,1.00
2023-04-26T15:26:13.508Z,1.20
2023-04-26T15:28:41.302Z,1.40
2023-04-26T15:31:10.966Z,1.07
2023-04-26T15:33:38.394Z,0.90
2023-04-26T15:36:06.101Z,1.40
2023-04-26T15:38:36.037Z,1.37
2023-04-26T15:41:03.697Z,0.93
2023-04-26T15:43:31.091Z,1.43
2023-04-26T15:45:58.805Z,1.33
2023-04-26T15:48:27.133Z,1.20
2023-04-26T15:50:56.538Z,1.10
2023-04-26T15:53:24.901Z,1.30
2023-04-26T15:55:53.708Z,1.47
2023-04-26T15:58:21.059Z,1.30
2023-04-26T16:00:48.466Z,1.27
2023-04-26T16:03:16.210Z,1.37
2023-04-26T16:05:43.757Z,1.23
2023-04-26T16:08:11.365Z,1.33
2023-04-26T16:10:38.809Z,1.43
2023-04-26T16:13:07.945Z,1.30
2023-04-26T16:15:35.825Z,1.40
2023-04-26T16:18:03.440Z,1.40
2023-04-26T16:20:31.636Z,1.50
2023-04-26T16:22:59.263Z,1.47
2023-04-26T16:25:26.696Z,1.20
2023-04-26T16:27:54.256Z,1.10
2023-04-26T16:30:23.109Z,1.20
2023-04-26T16:32:50.632Z,0.97
2023-04-26T16:35:18.423Z,1.57
2023-04-26T16:37:46.289Z,1.40
2023-04-26T16:40:14.505Z,1.47
2023-04-26T16:42:43.319Z,1.40
2023-04-26T16:45:13.239Z,1.47
2023-04-26T16:47:43.507Z,1.40
2023-04-26T16:50:11.620Z,1.30
2023-04-26T16:52:39.319Z,1.37
2023-04-26T16:55:07.187Z,1.40
2023-04-26T16:57:34.544Z,1.60
2023-04-26T17:00:02.228Z,1.70
2023-04-26T17:02:29.792Z,1.33
2023-04-26T17:04:58.830Z,1.70
2023-04-26T17:07:26.223Z,1.50
2023-04-26T17:09:53.657Z,1.40
2023-04-26T17:12:21.233Z,1.60
2023-04-26T17:14:48.542Z,1.50
2023-04-26T17:17:15.894Z,1.47
2023-04-26T17:19:43.309Z,1.70
2023-04-26T17:22:12.459Z,1.30
2023-04-26T17:24:39.909Z,1.40
2023-04-26T17:27:08.341Z,1.70
2023-04-26T17:29:35.771Z,1.40
2023-04-26T17:32:03.355Z,1.30
2023-04-26T17:34:32.279Z,1.50
2023-04-26T17:36:59.860Z,1.23
2023-04-26T17:39:28.559Z,1.57
2023-04-26T17:41:56.326Z,1.80
2023-04-26T17:44:23.806Z,1.30
2023-04-26T17:46:51.215Z,1.37
2023-04-26T17:53:11.604Z,1.30
2023-04-26T17:55:40.556Z,1.40
2023-04-26T17:58:08.025Z,1.43
2023-04-26T18:00:35.547Z,1.23
2023-04-26T18:03:05.108Z,1.37
2023-04-26T18:05:32.734Z,1.77
2023-04-26T18:08:00.160Z,1.90
2023-04-26T18:10:27.633Z,1.70
2023-04-26T18:12:56.610Z,1.60
2023-04-26T18:15:24.211Z,1.97
2023-04-26T18:17:51.931Z,1.80
2023-04-26T18:20:19.305Z,1.53
2023-04-26T18:22:46.673Z,1.80
2023-04-26T18:25:14.138Z,1.77
2023-04-26T18:27:41.737Z,1.73
2023-04-26T18:30:12.704Z,1.90
2023-04-26T18:32:40.089Z,2.07
2023-04-26T18:35:08.217Z,1.77
2023-04-26T18:37:36.058Z,2.23
2023-04-26T18:40:04.715Z,2.27
2023-04-26T18:42:32.084Z,2.27
2023-04-26T18:45:00.960Z,2.30
2023-04-26T18:47:29.731Z,2.40
2023-04-26T18:49:57.680Z,1.80
2023-04-26T18:52:25.418Z,1.97
2023-04-26T18:54:52.855Z,1.97
2023-04-26T18:57:22.544Z,2.10
2023-04-26T18:59:50.052Z,1.80
2023-04-26T19:02:17.581Z,1.70
2023-04-26T19:04:50.381Z,1.30
2023-04-26T19:07:18.179Z,1.53
2023-04-26T19:09:53.761Z,1.60
2023-04-26T19:12:21.778Z,1.47
2023-04-26T19:14:49.157Z,1.50
2023-04-26T19:17:16.535Z,1.50
2023-04-26T19:19:43.895Z,1.80
2023-04-26T19:22:12.656Z,1.80
2023-04-26T19:24:40.071Z,1.60
2023-04-26T19:27:07.534Z,1.53
2023-04-26T19:29:34.960Z,1.50
2023-04-26T19:32:04.757Z,2.00
2023-04-26T19:34:32.820Z,1.67
2023-04-26T19:37:00.642Z,1.70
2023-04-26T19:39:29.379Z,2.00
2023-04-26T19:41:56.996Z,2.33
2023-04-26T19:44:24.521Z,2.30
2023-04-26T19:46:51.892Z,2.20
2023-04-26T19:49:19.284Z,2.07
2023-04-26T19:51:46.687Z,2.20
2023-04-26T19:54:14.033Z,2.27
2023-04-26T19:56:42.808Z,1.87
2023-04-26T19:59:10.331Z,2.20
2023-04-26T20:01:38.000Z,1.83
2023-04-26T20:04:05.630Z,2.30
2023-04-26T20:06:33.236Z,2.33
2023-04-26T20:09:00.587Z,2.20
2023-04-26T20:11:28.337Z,2.27
2023-04-26T20:13:57.057Z,2.33
2023-04-26T20:16:25.122Z,2.00
2023-04-26T20:18:52.520Z,2.00
2023-04-26T20:21:19.895Z,2.17
2023-04-26T20:23:47.248Z,2.20
2023-04-26T20:26:15.091Z,2.17
2023-04-26T20:28:42.521Z,2.40
2023-04-26T20:31:11.686Z,2.70
2023-04-26T20:33:39.068Z,2.30
2023-04-26T20:36:06.839Z,2.67
2023-04-26T20:38:34.303Z,2.67
2023-04-26T20:41:01.720Z,2.90
2023-04-26T20:43:29.103Z,3.00
2023-04-26T20:45:56.497Z,3.20
2023-04-26T20:48:25.613Z,3.20
2023-04-26T20:50:54.472Z,3.07
2023-04-26T20:53:22.464Z,3.17
2023-04-26T20:55:52.233Z,2.90
2023-04-26T20:58:19.743Z,3.13
2023-04-26T21:00:49.432Z,3.47
2023-04-26T21:03:16.980Z,3.70
2023-04-26T21:05:45.806Z,3.40
2023-04-26T21:08:13.187Z,3.10
2023-04-26T21:10:40.982Z,4.17
2023-04-26T21:13:08.525Z,3.60
2023-04-26T21:15:36.036Z,3.80
2023-04-26T21:18:03.536Z,3.83
2023-04-26T21:20:30.899Z,4.40
2023-04-26T21:22:59.581Z,3.77
2023-04-26T21:25:27.853Z,3.87
2023-04-26T21:27:55.377Z,3.67
2023-04-26T21:30:22.943Z,3.30
2023-04-26T21:32:50.433Z,3.23
2023-04-26T21:35:17.814Z,3.27
2023-04-26T21:37:45.352Z,3.40
2023-04-26T21:40:14.469Z,3.50
2023-04-26T21:42:44.735Z,3.03
2023-04-26T21:45:18.825Z,3.50
2023-04-26T21:47:46.194Z,2.63
2023-04-26T21:50:14.211Z,2.97
2023-04-26T21:52:41.688Z,2.97
2023-04-26T21:55:09.844Z,3.00
2023-04-26T21:57:39.033Z,3.20
2023-04-26T22:00:11.563Z,3.00
2023-04-26T22:02:41.810Z,3.10
2023-04-26T22:05:09.546Z,3.03
2023-04-26T22:07:37.018Z,2.80
2023-04-26T22:10:04.726Z,3.23
2023-04-26T22:12:32.138Z,3.00
2023-04-26T22:15:01.706Z,2.80
2023-04-26T22:17:29.117Z,2.77
2023-04-26T22:19:56.513Z,2.63
2023-04-26T22:22:23.977Z,2.47
2023-04-26T22:24:51.544Z,2.77
2023-04-26T22:27:18.886Z,3.13
2023-04-26T22:29:46.239Z,2.53
2023-04-26T22:32:14.977Z,2.63
2023-04-26T22:34:43.751Z,2.53
2023-04-26T22:37:20.877Z,2.77
2023-04-26T22:39:48.924Z,2.83
2023-04-26T22:42:16.573Z,3.07
2023-04-26T22:44:43.952Z,2.43
2023-04-26T22:47:11.291Z,3.20
2023-04-26T22:49:39.982Z,2.80
2023-04-26T22:52:14.401Z,2.67
2023-04-26T22:54:51.664Z,2.40
2023-04-26T22:57:19.054Z,2.60
2023-04-26T22:59:46.479Z,2.33
2023-04-26T23:02:15.186Z,2.13
2023-04-26T23:04:43.891Z,2.57
2023-04-26T23:07:11.442Z,2.10
2023-04-26T23:09:38.882Z,1.93
2023-04-26T23:12:06.620Z,2.83
2023-04-26T23:14:35.201Z,3.10
2023-04-26T23:17:02.947Z,2.13
2023-04-26T23:19:30.354Z,2.37
2023-04-26T23:21:59.135Z,2.33
2023-04-26T23:24:26.855Z,2.43
2023-04-26T23:26:54.342Z,2.33
2023-04-26T23:29:21.716Z,2.33
2023-04-26T23:31:49.120Z,2.40
2023-04-26T23:34:16.628Z,2.23
2023-04-26T23:36:43.980Z,1.87
2023-04-26T23:39:12.902Z,2.20
2023-04-26T23:41:40.590Z,2.17
2023-04-26T23:44:08.311Z,2.03
2023-04-26T23:46:35.769Z,3.03
2023-04-26T23:49:03.263Z,2.40
2023-04-26T23:51:31.287Z,2.70
2023-04-26T23:53:58.646Z,2.47
2023-04-26T23:56:27.355Z,2.30
2023-04-26T23:58:56.135Z,2.60
